CHA weather

Charole Airport
ComondĂș, Baja California Sur, Mexico

Public forecast

Using degrees Celsius for public forecast. Weather courtesy of forecast.io.

METAR (pilot weather report)

Closest report is Loreto International Airport, 33.0 nm (61.0 km) S. Retrieved 2019/06/18 00:49 UTC (1 hour ago):

MMLT 180049Z 14008KT 9SM FEW240 31/24 A2973 RMK 8/002 HZY

TAF (pilot weather forecast)

Forecast is more than 6 hours old.

Closest forecast is Loreto International Airport, 33.0 nm (61.0 km) S. Retrieved 2019/06/17 18:39 UTC (7 hours ago):

TAF MMLT 171636Z 1718/1818 12010KT P6SM SKC FM180300 04005KT P6SM SKC